sensor_id;sensor_type;location;lat;lon;timestamp;P1;durP1;ratioP1;P2;durP2;ratioP2
3939;SDS011;1984;48.312;9.244;2024-02-21T00:01:34;13.90;;;7.47;;
3939;SDS011;1984;48.312;9.244;2024-02-21T00:03:59;12.03;;;6.67;;
3939;SDS011;1984;48.312;9.244;2024-02-21T00:06:25;8.13;;;5.37;;
3939;SDS011;1984;48.312;9.244;2024-02-21T00:08:51;15.17;;;6.37;;
3939;SDS011;1984;48.312;9.244;2024-02-21T00:11:16;10.63;;;4.90;;
3939;SDS011;1984;48.312;9.244;2024-02-21T00:13:42;8.83;;;4.97;;
3939;SDS011;1984;48.312;9.244;2024-02-21T00:16:07;10.40;;;5.73;;
3939;SDS011;1984;48.312;9.244;2024-02-21T00:18:33;11.20;;;5.43;;
3939;SDS011;1984;48.312;9.244;2024-02-21T00:20:58;24.27;;;7.90;;
3939;SDS011;1984;48.312;9.244;2024-02-21T00:23:26;11.60;;;6.03;;
3939;SDS011;1984;48.312;9.244;2024-02-21T00:25:52;14.97;;;7.00;;
3939;SDS011;1984;48.312;9.244;2024-02-21T00:28:18;12.47;;;6.90;;
3939;SDS011;1984;48.312;9.244;2024-02-21T00:30:43;13.57;;;6.97;;
3939;SDS011;1984;48.312;9.244;2024-02-21T00:33:09;11.53;;;5.83;;
3939;SDS011;1984;48.312;9.244;2024-02-21T00:35:35;14.53;;;6.57;;
3939;SDS011;1984;48.312;9.244;2024-02-21T00:38:00;12.20;;;6.40;;
3939;SDS011;1984;48.312;9.244;2024-02-21T00:40:26;11.53;;;6.30;;
3939;SDS011;1984;48.312;9.244;2024-02-21T00:42:51;17.00;;;6.00;;
3939;SDS011;1984;48.312;9.244;2024-02-21T00:45:17;11.10;;;5.13;;
3939;SDS011;1984;48.312;9.244;2024-02-21T00:47:42;8.40;;;5.20;;
3939;SDS011;1984;48.312;9.244;2024-02-21T00:50:08;6.77;;;4.50;;
3939;SDS011;1984;48.312;9.244;2024-02-21T00:52:34;8.40;;;5.27;;
3939;SDS011;1984;48.312;9.244;2024-02-21T00:55:00;8.13;;;4.77;;
3939;SDS011;1984;48.312;9.244;2024-02-21T00:57:26;10.83;;;5.07;;
3939;SDS011;1984;48.312;9.244;2024-02-21T00:59:51;13.17;;;4.27;;
3939;SDS011;1984;48.312;9.244;2024-02-21T01:02:17;7.43;;;5.30;;
3939;SDS011;1984;48.312;9.244;2024-02-21T01:04:42;10.13;;;4.97;;
3939;SDS011;1984;48.312;9.244;2024-02-21T01:07:08;17.80;;;4.87;;
3939;SDS011;1984;48.312;9.244;2024-02-21T01:09:33;8.63;;;4.40;;
3939;SDS011;1984;48.312;9.244;2024-02-21T01:11:59;5.77;;;4.67;;
3939;SDS011;1984;48.312;9.244;2024-02-21T01:14:24;10.60;;;4.47;;
3939;SDS011;1984;48.312;9.244;2024-02-21T01:16:50;4.87;;;3.80;;
3939;SDS011;1984;48.312;9.244;2024-02-21T01:19:15;7.13;;;4.33;;
3939;SDS011;1984;48.312;9.244;2024-02-21T01:21:41;7.40;;;3.90;;
3939;SDS011;1984;48.312;9.244;2024-02-21T01:24:06;12.63;;;5.00;;
3939;SDS011;1984;48.312;9.244;2024-02-21T01:26:32;4.70;;;3.80;;
3939;SDS011;1984;48.312;9.244;2024-02-21T01:28:58;9.20;;;3.50;;
3939;SDS011;1984;48.312;9.244;2024-02-21T01:31:24;8.50;;;3.73;;
3939;SDS011;1984;48.312;9.244;2024-02-21T01:33:49;8.60;;;3.80;;
3939;SDS011;1984;48.312;9.244;2024-02-21T01:36:15;6.83;;;3.90;;
3939;SDS011;1984;48.312;9.244;2024-02-21T01:38:41;6.43;;;3.20;;
3939;SDS011;1984;48.312;9.244;2024-02-21T01:41:06;10.97;;;3.30;;
3939;SDS011;1984;48.312;9.244;2024-02-21T01:43:32;10.80;;;3.80;;
3939;SDS011;1984;48.312;9.244;2024-02-21T01:45:57;10.47;;;3.50;;
3939;SDS011;1984;48.312;9.244;2024-02-21T01:48:24;5.70;;;4.30;;
3939;SDS011;1984;48.312;9.244;2024-02-21T01:50:50;5.53;;;3.27;;
3939;SDS011;1984;48.312;9.244;2024-02-21T01:53:18;8.47;;;3.27;;
3939;SDS011;1984;48.312;9.244;2024-02-21T01:55:46;6.60;;;3.03;;
3939;SDS011;1984;48.312;9.244;2024-02-21T01:58:15;5.93;;;2.83;;
3939;SDS011;1984;48.312;9.244;2024-02-21T02:00:42;5.40;;;3.37;;
3939;SDS011;1984;48.312;9.244;2024-02-21T02:03:11;12.53;;;3.73;;
3939;SDS011;1984;48.312;9.244;2024-02-21T02:05:44;7.43;;;3.80;;
3939;SDS011;1984;48.312;9.244;2024-02-21T02:08:11;11.23;;;4.93;;
3939;SDS011;1984;48.312;9.244;2024-02-21T02:10:40;10.40;;;4.20;;
3939;SDS011;1984;48.312;9.244;2024-02-21T02:13:06;9.37;;;3.83;;
3939;SDS011;1984;48.312;9.244;2024-02-21T02:15:44;8.33;;;3.57;;
3939;SDS011;1984;48.312;9.244;2024-02-21T02:18:11;14.90;;;4.97;;
3939;SDS011;1984;48.312;9.244;2024-02-21T02:20:38;7.43;;;3.93;;
3939;SDS011;1984;48.312;9.244;2024-02-21T02:23:07;10.17;;;3.37;;
3939;SDS011;1984;48.312;9.244;2024-02-21T02:25:37;8.83;;;3.50;;
3939;SDS011;1984;48.312;9.244;2024-02-21T02:28:04;7.20;;;3.20;;
3939;SDS011;1984;48.312;9.244;2024-02-21T02:30:33;6.60;;;3.00;;
3939;SDS011;1984;48.312;9.244;2024-02-21T02:33:01;5.30;;;3.23;;
3939;SDS011;1984;48.312;9.244;2024-02-21T02:35:29;6.80;;;3.47;;
3939;SDS011;1984;48.312;9.244;2024-02-21T02:37:55;6.23;;;3.07;;
3939;SDS011;1984;48.312;9.244;2024-02-21T02:40:21;6.13;;;3.20;;
3939;SDS011;1984;48.312;9.244;2024-02-21T02:42:46;5.73;;;2.77;;
3939;SDS011;1984;48.312;9.244;2024-02-21T02:45:14;4.50;;;3.00;;
3939;SDS011;1984;48.312;9.244;2024-02-21T02:47:46;8.73;;;3.30;;
3939;SDS011;1984;48.312;9.244;2024-02-21T02:50:12;5.30;;;3.20;;
3939;SDS011;1984;48.312;9.244;2024-02-21T02:52:38;3.73;;;3.03;;
3939;SDS011;1984;48.312;9.244;2024-02-21T02:55:04;6.93;;;3.23;;
3939;SDS011;1984;48.312;9.244;2024-02-21T02:57:30;5.53;;;3.07;;
3939;SDS011;1984;48.312;9.244;2024-02-21T02:59:55;5.50;;;2.80;;
3939;SDS011;1984;48.312;9.244;2024-02-21T03:02:21;5.60;;;2.70;;
3939;SDS011;1984;48.312;9.244;2024-02-21T03:04:47;4.53;;;2.87;;
3939;SDS011;1984;48.312;9.244;2024-02-21T03:07:13;7.90;;;2.63;;
3939;SDS011;1984;48.312;9.244;2024-02-21T03:09:39;6.87;;;3.60;;
3939;SDS011;1984;48.312;9.244;2024-02-21T03:12:05;10.97;;;3.43;;
3939;SDS011;1984;48.312;9.244;2024-02-21T03:14:32;9.47;;;3.33;;
3939;SDS011;1984;48.312;9.244;2024-02-21T03:16:58;10.53;;;3.30;;
3939;SDS011;1984;48.312;9.244;2024-02-21T03:19:24;4.07;;;3.00;;
3939;SDS011;1984;48.312;9.244;2024-02-21T03:21:50;4.23;;;3.03;;
3939;SDS011;1984;48.312;9.244;2024-02-21T03:24:16;5.13;;;2.13;;
3939;SDS011;1984;48.312;9.244;2024-02-21T03:26:42;5.27;;;2.70;;
3939;SDS011;1984;48.312;9.244;2024-02-21T03:29:08;4.57;;;2.27;;
3939;SDS011;1984;48.312;9.244;2024-02-21T03:31:36;6.80;;;2.73;;
3939;SDS011;1984;48.312;9.244;2024-02-21T03:34:02;6.50;;;3.50;;
3939;SDS011;1984;48.312;9.244;2024-02-21T03:36:28;5.43;;;3.00;;
3939;SDS011;1984;48.312;9.244;2024-02-21T03:38:54;3.07;;;2.40;;
3939;SDS011;1984;48.312;9.244;2024-02-21T03:41:20;16.23;;;3.97;;
3939;SDS011;1984;48.312;9.244;2024-02-21T03:43:45;4.80;;;3.07;;
3939;SDS011;1984;48.312;9.244;2024-02-21T03:46:11;8.17;;;2.93;;
3939;SDS011;1984;48.312;9.244;2024-02-21T03:48:36;6.80;;;2.93;;
3939;SDS011;1984;48.312;9.244;2024-02-21T03:51:02;6.40;;;2.63;;
3939;SDS011;1984;48.312;9.244;2024-02-21T03:53:27;9.33;;;2.87;;
3939;SDS011;1984;48.312;9.244;2024-02-21T03:55:53;6.13;;;2.43;;
3939;SDS011;1984;48.312;9.244;2024-02-21T03:58:19;4.70;;;2.10;;
3939;SDS011;1984;48.312;9.244;2024-02-21T04:00:45;13.23;;;2.13;;
3939;SDS011;1984;48.312;9.244;2024-02-21T04:03:11;2.70;;;2.20;;
3939;SDS011;1984;48.312;9.244;2024-02-21T04:05:36;2.43;;;2.20;;
3939;SDS011;1984;48.312;9.244;2024-02-21T04:08:05;5.73;;;2.30;;
3939;SDS011;1984;48.312;9.244;2024-02-21T04:10:31;7.33;;;2.77;;
3939;SDS011;1984;48.312;9.244;2024-02-21T04:12:56;3.53;;;2.67;;
3939;SDS011;1984;48.312;9.244;2024-02-21T04:15:22;7.33;;;2.60;;
3939;SDS011;1984;48.312;9.244;2024-02-21T04:17:47;2.83;;;1.73;;
3939;SDS011;1984;48.312;9.244;2024-02-21T04:20:14;1.27;;;1.10;;
3939;SDS011;1984;48.312;9.244;2024-02-21T04:22:42;5.63;;;1.93;;
3939;SDS011;1984;48.312;9.244;2024-02-21T04:25:09;4.33;;;1.80;;
3939;SDS011;1984;48.312;9.244;2024-02-21T04:27:35;4.13;;;2.20;;
3939;SDS011;1984;48.312;9.244;2024-02-21T04:30:02;3.77;;;1.87;;
3939;SDS011;1984;48.312;9.244;2024-02-21T04:32:28;2.57;;;1.43;;
3939;SDS011;1984;48.312;9.244;2024-02-21T04:34:53;3.27;;;2.87;;
3939;SDS011;1984;48.312;9.244;2024-02-21T04:37:19;8.90;;;3.00;;
3939;SDS011;1984;48.312;9.244;2024-02-21T04:39:45;3.70;;;2.43;;
3939;SDS011;1984;48.312;9.244;2024-02-21T04:42:11;10.47;;;3.60;;
3939;SDS011;1984;48.312;9.244;2024-02-21T04:44:37;3.03;;;2.47;;
3939;SDS011;1984;48.312;9.244;2024-02-21T04:47:03;8.03;;;3.03;;
3939;SDS011;1984;48.312;9.244;2024-02-21T04:49:29;6.60;;;2.23;;
3939;SDS011;1984;48.312;9.244;2024-02-21T04:51:55;3.37;;;2.27;;
3939;SDS011;1984;48.312;9.244;2024-02-21T04:54:20;3.80;;;1.83;;
3939;SDS011;1984;48.312;9.244;2024-02-21T04:56:46;2.30;;;1.87;;
3939;SDS011;1984;48.312;9.244;2024-02-21T04:59:11;13.63;;;2.37;;
3939;SDS011;1984;48.312;9.244;2024-02-21T05:01:37;5.90;;;2.10;;
3939;SDS011;1984;48.312;9.244;2024-02-21T05:04:02;7.20;;;2.73;;
3939;SDS011;1984;48.312;9.244;2024-02-21T05:06:28;2.00;;;1.87;;
3939;SDS011;1984;48.312;9.244;2024-02-21T05:08:53;3.13;;;2.07;;
3939;SDS011;1984;48.312;9.244;2024-02-21T05:11:20;5.83;;;2.23;;
3939;SDS011;1984;48.312;9.244;2024-02-21T05:13:46;17.27;;;2.83;;
3939;SDS011;1984;48.312;9.244;2024-02-21T05:16:12;5.43;;;2.53;;
3939;SDS011;1984;48.312;9.244;2024-02-21T05:18:37;8.57;;;2.90;;
3939;SDS011;1984;48.312;9.244;2024-02-21T05:21:03;4.40;;;2.50;;
3939;SDS011;1984;48.312;9.244;2024-02-21T05:23:29;2.63;;;2.23;;
3939;SDS011;1984;48.312;9.244;2024-02-21T05:25:55;7.73;;;3.70;;
3939;SDS011;1984;48.312;9.244;2024-02-21T05:28:20;12.67;;;3.30;;
3939;SDS011;1984;48.312;9.244;2024-02-21T05:30:46;5.90;;;2.60;;
3939;SDS011;1984;48.312;9.244;2024-02-21T05:33:11;4.13;;;2.70;;
3939;SDS011;1984;48.312;9.244;2024-02-21T05:35:37;12.80;;;3.20;;
3939;SDS011;1984;48.312;9.244;2024-02-21T05:38:03;2.47;;;2.27;;
3939;SDS011;1984;48.312;9.244;2024-02-21T05:40:32;5.93;;;2.90;;
3939;SDS011;1984;48.312;9.244;2024-02-21T05:42:58;5.30;;;2.37;;
3939;SDS011;1984;48.312;9.244;2024-02-21T05:45:23;4.20;;;2.27;;
3939;SDS011;1984;48.312;9.244;2024-02-21T05:47:49;6.60;;;1.73;;
3939;SDS011;1984;48.312;9.244;2024-02-21T05:50:15;4.80;;;2.13;;
3939;SDS011;1984;48.312;9.244;2024-02-21T05:52:40;6.53;;;2.27;;
3939;SDS011;1984;48.312;9.244;2024-02-21T05:55:06;2.60;;;1.97;;
3939;SDS011;1984;48.312;9.244;2024-02-21T05:57:33;6.17;;;2.50;;
3939;SDS011;1984;48.312;9.244;2024-02-21T05:59:59;2.40;;;2.20;;
3939;SDS011;1984;48.312;9.244;2024-02-21T06:02:25;6.73;;;2.10;;
3939;SDS011;1984;48.312;9.244;2024-02-21T06:04:50;2.53;;;2.30;;
3939;SDS011;1984;48.312;9.244;2024-02-21T06:07:16;5.23;;;2.50;;
3939;SDS011;1984;48.312;9.244;2024-02-21T06:09:41;2.90;;;2.70;;
3939;SDS011;1984;48.312;9.244;2024-02-21T06:12:07;11.77;;;2.83;;
3939;SDS011;1984;48.312;9.244;2024-02-21T06:14:32;4.90;;;2.90;;
3939;SDS011;1984;48.312;9.244;2024-02-21T06:16:58;5.10;;;3.03;;
3939;SDS011;1984;48.312;9.244;2024-02-21T06:19:23;5.03;;;2.53;;
3939;SDS011;1984;48.312;9.244;2024-02-21T06:21:49;8.40;;;3.00;;
3939;SDS011;1984;48.312;9.244;2024-02-21T06:24:14;6.83;;;2.93;;
3939;SDS011;1984;48.312;9.244;2024-02-21T06:26:40;10.50;;;3.30;;
3939;SDS011;1984;48.312;9.244;2024-02-21T06:29:06;9.60;;;3.63;;
3939;SDS011;1984;48.312;9.244;2024-02-21T06:31:31;7.50;;;3.60;;
3939;SDS011;1984;48.312;9.244;2024-02-21T06:33:57;5.20;;;3.30;;
3939;SDS011;1984;48.312;9.244;2024-02-21T06:36:22;7.07;;;4.40;;
3939;SDS011;1984;48.312;9.244;2024-02-21T06:38:48;12.13;;;4.40;;
3939;SDS011;1984;48.312;9.244;2024-02-21T06:41:17;11.83;;;4.27;;
3939;SDS011;1984;48.312;9.244;2024-02-21T06:43:44;9.80;;;3.60;;
3939;SDS011;1984;48.312;9.244;2024-02-21T06:46:25;11.30;;;4.10;;
3939;SDS011;1984;48.312;9.244;2024-02-21T06:48:53;11.90;;;4.23;;
3939;SDS011;1984;48.312;9.244;2024-02-21T06:51:19;9.00;;;4.23;;
3939;SDS011;1984;48.312;9.244;2024-02-21T06:53:44;14.90;;;5.30;;
3939;SDS011;1984;48.312;9.244;2024-02-21T06:56:10;7.83;;;4.63;;
3939;SDS011;1984;48.312;9.244;2024-02-21T06:58:36;10.57;;;3.90;;
3939;SDS011;1984;48.312;9.244;2024-02-21T07:01:01;13.20;;;4.93;;
3939;SDS011;1984;48.312;9.244;2024-02-21T07:03:27;95.83;;;30.77;;
3939;SDS011;1984;48.312;9.244;2024-02-21T07:05:52;40.00;;;14.17;;
3939;SDS011;1984;48.312;9.244;2024-02-21T07:08:18;11.97;;;4.90;;
3939;SDS011;1984;48.312;9.244;2024-02-21T07:10:43;9.90;;;4.53;;
3939;SDS011;1984;48.312;9.244;2024-02-21T07:13:09;3.80;;;2.90;;
3939;SDS011;1984;48.312;9.244;2024-02-21T07:15:34;7.70;;;2.67;;
3939;SDS011;1984;48.312;9.244;2024-02-21T07:18:01;7.80;;;3.10;;
3939;SDS011;1984;48.312;9.244;2024-02-21T07:20:27;7.00;;;3.43;;
3939;SDS011;1984;48.312;9.244;2024-02-21T07:22:52;10.77;;;4.93;;
3939;SDS011;1984;48.312;9.244;2024-02-21T07:25:18;9.27;;;4.77;;
3939;SDS011;1984;48.312;9.244;2024-02-21T07:27:44;9.40;;;4.10;;
3939;SDS011;1984;48.312;9.244;2024-02-21T07:30:10;10.33;;;4.60;;
3939;SDS011;1984;48.312;9.244;2024-02-21T07:32:35;8.30;;;4.20;;
3939;SDS011;1984;48.312;9.244;2024-02-21T07:35:01;10.37;;;5.00;;
3939;SDS011;1984;48.312;9.244;2024-02-21T07:37:27;13.80;;;4.93;;
3939;SDS011;1984;48.312;9.244;2024-02-21T07:39:52;10.20;;;4.00;;
3939;SDS011;1984;48.312;9.244;2024-02-21T07:42:18;9.97;;;3.93;;
3939;SDS011;1984;48.312;9.244;2024-02-21T07:44:43;4.10;;;2.73;;
3939;SDS011;1984;48.312;9.244;2024-02-21T07:47:09;4.80;;;2.67;;
3939;SDS011;1984;48.312;9.244;2024-02-21T07:49:41;8.43;;;2.37;;
3939;SDS011;1984;48.312;9.244;2024-02-21T07:52:08;10.30;;;3.57;;
3939;SDS011;1984;48.312;9.244;2024-02-21T07:54:33;10.37;;;3.90;;
3939;SDS011;1984;48.312;9.244;2024-02-21T07:56:59;7.70;;;3.23;;
3939;SDS011;1984;48.312;9.244;2024-02-21T07:59:24;9.80;;;4.00;;
3939;SDS011;1984;48.312;9.244;2024-02-21T08:01:50;10.70;;;3.70;;
3939;SDS011;1984;48.312;9.244;2024-02-21T08:04:15;5.70;;;3.27;;
3939;SDS011;1984;48.312;9.244;2024-02-21T08:06:41;21.83;;;3.40;;
3939;SDS011;1984;48.312;9.244;2024-02-21T08:09:06;8.13;;;2.83;;
3939;SDS011;1984;48.312;9.244;2024-02-21T08:11:32;6.20;;;2.37;;
3939;SDS011;1984;48.312;9.244;2024-02-21T08:13:57;5.60;;;2.93;;
3939;SDS011;1984;48.312;9.244;2024-02-21T08:16:23;10.67;;;2.40;;
3939;SDS011;1984;48.312;9.244;2024-02-21T08:18:48;5.23;;;2.40;;
3939;SDS011;1984;48.312;9.244;2024-02-21T08:21:14;6.90;;;3.57;;
3939;SDS011;1984;48.312;9.244;2024-02-21T08:23:39;13.37;;;2.27;;
3939;SDS011;1984;48.312;9.244;2024-02-21T08:26:05;9.83;;;4.10;;
3939;SDS011;1984;48.312;9.244;2024-02-21T08:28:31;11.23;;;4.20;;
3939;SDS011;1984;48.312;9.244;2024-02-21T08:30:56;10.20;;;5.97;;
3939;SDS011;1984;48.312;9.244;2024-02-21T08:33:22;13.73;;;4.50;;
3939;SDS011;1984;48.312;9.244;2024-02-21T08:35:50;11.50;;;3.90;;
3939;SDS011;1984;48.312;9.244;2024-02-21T08:38:16;9.20;;;2.87;;
3939;SDS011;1984;48.312;9.244;2024-02-21T08:40:42;7.60;;;2.90;;
3939;SDS011;1984;48.312;9.244;2024-02-21T08:43:07;4.67;;;2.23;;
3939;SDS011;1984;48.312;9.244;2024-02-21T08:45:33;9.10;;;3.23;;
3939;SDS011;1984;48.312;9.244;2024-02-21T08:47:58;6.20;;;2.93;;
3939;SDS011;1984;48.312;9.244;2024-02-21T08:50:24;18.90;;;4.40;;
3939;SDS011;1984;48.312;9.244;2024-02-21T08:52:50;6.90;;;3.80;;
3939;SDS011;1984;48.312;9.244;2024-02-21T08:55:16;5.67;;;3.63;;
3939;SDS011;1984;48.312;9.244;2024-02-21T08:57:41;8.83;;;4.10;;
3939;SDS011;1984;48.312;9.244;2024-02-21T09:00:07;10.90;;;4.37;;
3939;SDS011;1984;48.312;9.244;2024-02-21T09:02:41;4.47;;;2.30;;
3939;SDS011;1984;48.312;9.244;2024-02-21T09:05:09;6.70;;;3.13;;
3939;SDS011;1984;48.312;9.244;2024-02-21T09:07:35;5.77;;;2.60;;
3939;SDS011;1984;48.312;9.244;2024-02-21T09:10:01;4.17;;;2.50;;
3939;SDS011;1984;48.312;9.244;2024-02-21T09:12:27;10.20;;;2.90;;
3939;SDS011;1984;48.312;9.244;2024-02-21T09:14:54;5.87;;;2.50;;
3939;SDS011;1984;48.312;9.244;2024-02-21T09:17:19;5.20;;;3.00;;
3939;SDS011;1984;48.312;9.244;2024-02-21T09:19:50;5.97;;;2.20;;
3939;SDS011;1984;48.312;9.244;2024-02-21T09:22:15;5.50;;;3.10;;
3939;SDS011;1984;48.312;9.244;2024-02-21T09:24:41;11.27;;;2.67;;
3939;SDS011;1984;48.312;9.244;2024-02-21T09:27:06;5.73;;;2.70;;
3939;SDS011;1984;48.312;9.244;2024-02-21T09:29:32;8.03;;;2.67;;
3939;SDS011;1984;48.312;9.244;2024-02-21T09:32:01;10.70;;;2.73;;
3939;SDS011;1984;48.312;9.244;2024-02-21T09:34:27;7.07;;;2.60;;
3939;SDS011;1984;48.312;9.244;2024-02-21T09:36:53;8.47;;;3.40;;
3939;SDS011;1984;48.312;9.244;2024-02-21T09:39:19;7.90;;;2.83;;
3939;SDS011;1984;48.312;9.244;2024-02-21T09:41:45;6.10;;;2.53;;
3939;SDS011;1984;48.312;9.244;2024-02-21T09:44:17;10.50;;;4.70;;
3939;SDS011;1984;48.312;9.244;2024-02-21T09:46:45;4.30;;;2.20;;
3939;SDS011;1984;48.312;9.244;2024-02-21T09:49:21;9.23;;;3.40;;
3939;SDS011;1984;48.312;9.244;2024-02-21T09:51:49;7.33;;;3.27;;
3939;SDS011;1984;48.312;9.244;2024-02-21T09:54:19;6.57;;;2.97;;
3939;SDS011;1984;48.312;9.244;2024-02-21T09:56:46;7.10;;;3.00;;
3939;SDS011;1984;48.312;9.244;2024-02-21T09:59:12;6.20;;;2.70;;
3939;SDS011;1984;48.312;9.244;2024-02-21T10:01:41;5.00;;;2.67;;
3939;SDS011;1984;48.312;9.244;2024-02-21T10:04:08;9.13;;;2.83;;
3939;SDS011;1984;48.312;9.244;2024-02-21T10:06:34;6.33;;;2.50;;
3939;SDS011;1984;48.312;9.244;2024-02-21T10:09:02;4.90;;;2.47;;
3939;SDS011;1984;48.312;9.244;2024-02-21T10:11:28;5.43;;;2.30;;
3939;SDS011;1984;48.312;9.244;2024-02-21T10:14:06;3.30;;;2.40;;
3939;SDS011;1984;48.312;9.244;2024-02-21T10:16:32;4.67;;;2.10;;
3939;SDS011;1984;48.312;9.244;2024-02-21T10:18:58;7.03;;;3.20;;
3939;SDS011;1984;48.312;9.244;2024-02-21T10:21:24;12.93;;;3.97;;
3939;SDS011;1984;48.312;9.244;2024-02-21T10:23:49;7.83;;;3.47;;
3939;SDS011;1984;48.312;9.244;2024-02-21T10:26:16;8.50;;;3.00;;
3939;SDS011;1984;48.312;9.244;2024-02-21T10:28:43;5.40;;;2.73;;
3939;SDS011;1984;48.312;9.244;2024-02-21T10:31:10;4.03;;;2.40;;
3939;SDS011;1984;48.312;9.244;2024-02-21T10:33:37;6.23;;;2.60;;
3939;SDS011;1984;48.312;9.244;2024-02-21T10:36:09;6.70;;;1.90;;
3939;SDS011;1984;48.312;9.244;2024-02-21T10:38:36;5.27;;;2.20;;
3939;SDS011;1984;48.312;9.244;2024-02-21T10:41:04;10.50;;;2.50;;
3939;SDS011;1984;48.312;9.244;2024-02-21T10:43:30;7.53;;;1.80;;
3939;SDS011;1984;48.312;9.244;2024-02-21T10:46:10;3.43;;;2.33;;
3939;SDS011;1984;48.312;9.244;2024-02-21T10:48:46;6.60;;;2.00;;
3939;SDS011;1984;48.312;9.244;2024-02-21T10:51:14;4.70;;;2.10;;
3939;SDS011;1984;48.312;9.244;2024-02-21T10:56:49;4.40;;;2.00;;
3939;SDS011;1984;48.312;9.244;2024-02-21T10:59:16;2.97;;;1.67;;
3939;SDS011;1984;48.312;9.244;2024-02-21T11:01:43;4.07;;;2.10;;
3939;SDS011;1984;48.312;9.244;2024-02-21T11:04:08;4.30;;;1.60;;
3939;SDS011;1984;48.312;9.244;2024-02-21T11:06:37;1.70;;;1.30;;
3939;SDS011;1984;48.312;9.244;2024-02-21T11:09:04;2.80;;;1.80;;
3939;SDS011;1984;48.312;9.244;2024-02-21T11:11:34;5.90;;;1.40;;
3939;SDS011;1984;48.312;9.244;2024-02-21T11:14:08;1.50;;;1.40;;
3939;SDS011;1984;48.312;9.244;2024-02-21T11:16:35;2.30;;;1.20;;
3939;SDS011;1984;48.312;9.244;2024-02-21T11:21:51;2.10;;;1.53;;
3939;SDS011;1984;48.312;9.244;2024-02-21T11:24:31;1.97;;;1.63;;
3939;SDS011;1984;48.312;9.244;2024-02-21T11:27:08;2.83;;;1.80;;
3939;SDS011;1984;48.312;9.244;2024-02-21T11:29:39;7.00;;;1.60;;
3939;SDS011;1984;48.312;9.244;2024-02-21T11:32:06;3.80;;;1.80;;
3939;SDS011;1984;48.312;9.244;2024-02-21T11:34:35;4.13;;;2.00;;
3939;SDS011;1984;48.312;9.244;2024-02-21T11:37:01;1.87;;;1.30;;
3939;SDS011;1984;48.312;9.244;2024-02-21T11:39:27;5.10;;;1.47;;
3939;SDS011;1984;48.312;9.244;2024-02-21T11:42:02;2.83;;;1.57;;
3939;SDS011;1984;48.312;9.244;2024-02-21T11:44:29;4.70;;;1.40;;
3939;SDS011;1984;48.312;9.244;2024-02-21T11:46:55;2.77;;;1.10;;
3939;SDS011;1984;48.312;9.244;2024-02-21T11:49:21;5.87;;;1.47;;
3939;SDS011;1984;48.312;9.244;2024-02-21T11:51:46;3.50;;;1.43;;
3939;SDS011;1984;48.312;9.244;2024-02-21T11:54:13;1.63;;;1.47;;
3939;SDS011;1984;48.312;9.244;2024-02-21T11:56:41;3.73;;;1.30;;
3939;SDS011;1984;48.312;9.244;2024-02-21T11:59:07;2.77;;;1.33;;
3939;SDS011;1984;48.312;9.244;2024-02-21T12:01:33;1.37;;;1.20;;
3939;SDS011;1984;48.312;9.244;2024-02-21T12:03:59;1.97;;;1.20;;
3939;SDS011;1984;48.312;9.244;2024-02-21T12:06:25;4.77;;;1.60;;
3939;SDS011;1984;48.312;9.244;2024-02-21T12:08:50;1.40;;;1.30;;
3939;SDS011;1984;48.312;9.244;2024-02-21T12:11:22;4.40;;;2.13;;
3939;SDS011;1984;48.312;9.244;2024-02-21T12:14:03;4.37;;;1.20;;
3939;SDS011;1984;48.312;9.244;2024-02-21T12:16:33;3.77;;;1.47;;
3939;SDS011;1984;48.312;9.244;2024-02-21T12:18:59;2.07;;;1.20;;
3939;SDS011;1984;48.312;9.244;2024-02-21T12:21:32;4.00;;;1.20;;
3939;SDS011;1984;48.312;9.244;2024-02-21T12:24:11;2.10;;;1.00;;
3939;SDS011;1984;48.312;9.244;2024-02-21T12:26:40;2.23;;;1.80;;
3939;SDS011;1984;48.312;9.244;2024-02-21T12:29:06;5.50;;;1.53;;
3939;SDS011;1984;48.312;9.244;2024-02-21T12:31:34;7.67;;;1.50;;
3939;SDS011;1984;48.312;9.244;2024-02-21T12:34:00;9.33;;;2.40;;
3939;SDS011;1984;48.312;9.244;2024-02-21T12:36:26;1.33;;;1.23;;
3939;SDS011;1984;48.312;9.244;2024-02-21T12:38:52;6.97;;;1.30;;
3939;SDS011;1984;48.312;9.244;2024-02-21T12:41:17;1.70;;;1.00;;
3939;SDS011;1984;48.312;9.244;2024-02-21T12:43:43;5.60;;;1.20;;
3939;SDS011;1984;48.312;9.244;2024-02-21T12:46:08;1.47;;;1.37;;
3939;SDS011;1984;48.312;9.244;2024-02-21T12:48:34;2.27;;;1.50;;
3939;SDS011;1984;48.312;9.244;2024-02-21T12:50:59;2.93;;;1.70;;
3939;SDS011;1984;48.312;9.244;2024-02-21T12:53:25;2.20;;;1.10;;
3939;SDS011;1984;48.312;9.244;2024-02-21T12:55:50;3.10;;;1.40;;
3939;SDS011;1984;48.312;9.244;2024-02-21T12:58:16;6.60;;;2.60;;
3939;SDS011;1984;48.312;9.244;2024-02-21T13:00:42;3.17;;;2.10;;
3939;SDS011;1984;48.312;9.244;2024-02-21T13:03:08;2.77;;;1.93;;
3939;SDS011;1984;48.312;9.244;2024-02-21T13:05:37;2.03;;;1.13;;
3939;SDS011;1984;48.312;9.244;2024-02-21T13:08:03;3.37;;;1.20;;
3939;SDS011;1984;48.312;9.244;2024-02-21T13:10:32;6.30;;;1.50;;
3939;SDS011;1984;48.312;9.244;2024-02-21T13:12:59;1.90;;;1.37;;
3939;SDS011;1984;48.312;9.244;2024-02-21T13:15:25;1.17;;;1.07;;
3939;SDS011;1984;48.312;9.244;2024-02-21T13:17:52;1.60;;;1.03;;
3939;SDS011;1984;48.312;9.244;2024-02-21T13:20:18;2.83;;;1.77;;
3939;SDS011;1984;48.312;9.244;2024-02-21T13:22:44;5.57;;;2.90;;
3939;SDS011;1984;48.312;9.244;2024-02-21T13:25:10;4.33;;;1.70;;
3939;SDS011;1984;48.312;9.244;2024-02-21T13:27:38;5.23;;;2.70;;
3939;SDS011;1984;48.312;9.244;2024-02-21T13:30:04;2.63;;;2.10;;
3939;SDS011;1984;48.312;9.244;2024-02-21T13:32:32;5.33;;;1.80;;
3939;SDS011;1984;48.312;9.244;2024-02-21T13:34:57;7.30;;;3.30;;
3939;SDS011;1984;48.312;9.244;2024-02-21T13:37:25;1.87;;;1.40;;
3939;SDS011;1984;48.312;9.244;2024-02-21T13:39:52;8.60;;;2.17;;
3939;SDS011;1984;48.312;9.244;2024-02-21T13:42:17;3.90;;;1.90;;
3939;SDS011;1984;48.312;9.244;2024-02-21T13:44:44;6.90;;;1.30;;
3939;SDS011;1984;48.312;9.244;2024-02-21T13:47:10;1.30;;;1.20;;
3939;SDS011;1984;48.312;9.244;2024-02-21T13:49:38;1.77;;;1.60;;
3939;SDS011;1984;48.312;9.244;2024-02-21T13:52:04;19.33;;;2.77;;
3939;SDS011;1984;48.312;9.244;2024-02-21T13:54:30;2.83;;;1.70;;
3939;SDS011;1984;48.312;9.244;2024-02-21T13:56:55;2.60;;;2.20;;
3939;SDS011;1984;48.312;9.244;2024-02-21T13:59:21;2.30;;;1.77;;
3939;SDS011;1984;48.312;9.244;2024-02-21T14:01:46;3.60;;;2.10;;
3939;SDS011;1984;48.312;9.244;2024-02-21T14:04:12;2.47;;;2.10;;
3939;SDS011;1984;48.312;9.244;2024-02-21T14:06:37;3.13;;;1.77;;
3939;SDS011;1984;48.312;9.244;2024-02-21T14:09:08;3.00;;;1.77;;
3939;SDS011;1984;48.312;9.244;2024-02-21T14:11:34;3.80;;;1.67;;
3939;SDS011;1984;48.312;9.244;2024-02-21T14:13:59;2.00;;;1.90;;
3939;SDS011;1984;48.312;9.244;2024-02-21T14:16:25;4.40;;;2.27;;
3939;SDS011;1984;48.312;9.244;2024-02-21T14:18:51;3.30;;;2.10;;
3939;SDS011;1984;48.312;9.244;2024-02-21T14:21:16;5.93;;;1.87;;
3939;SDS011;1984;48.312;9.244;2024-02-21T14:23:42;12.43;;;2.10;;
3939;SDS011;1984;48.312;9.244;2024-02-21T14:26:08;18.70;;;2.10;;
3939;SDS011;1984;48.312;9.244;2024-02-21T14:28:34;4.83;;;1.53;;
3939;SDS011;1984;48.312;9.244;2024-02-21T14:31:00;3.30;;;2.20;;
3939;SDS011;1984;48.312;9.244;2024-02-21T14:33:29;10.20;;;3.07;;
3939;SDS011;1984;48.312;9.244;2024-02-21T14:35:55;2.83;;;1.80;;
3939;SDS011;1984;48.312;9.244;2024-02-21T14:38:21;2.17;;;1.90;;
3939;SDS011;1984;48.312;9.244;2024-02-21T14:40:47;4.13;;;2.10;;
3939;SDS011;1984;48.312;9.244;2024-02-21T14:43:13;3.97;;;2.30;;
3939;SDS011;1984;48.312;9.244;2024-02-21T14:45:39;3.70;;;2.07;;
3939;SDS011;1984;48.312;9.244;2024-02-21T14:48:05;3.67;;;2.67;;
3939;SDS011;1984;48.312;9.244;2024-02-21T14:50:31;5.83;;;2.50;;
3939;SDS011;1984;48.312;9.244;2024-02-21T14:52:57;2.77;;;2.23;;
3939;SDS011;1984;48.312;9.244;2024-02-21T14:55:23;6.40;;;3.53;;
3939;SDS011;1984;48.312;9.244;2024-02-21T14:57:49;2.20;;;2.00;;
3939;SDS011;1984;48.312;9.244;2024-02-21T15:00:15;4.23;;;1.90;;
3939;SDS011;1984;48.312;9.244;2024-02-21T15:02:41;4.40;;;2.40;;
3939;SDS011;1984;48.312;9.244;2024-02-21T15:05:07;2.97;;;2.67;;
3939;SDS011;1984;48.312;9.244;2024-02-21T15:07:33;7.00;;;2.43;;
3939;SDS011;1984;48.312;9.244;2024-02-21T15:09:59;5.00;;;2.70;;
3939;SDS011;1984;48.312;9.244;2024-02-21T15:12:24;3.90;;;2.10;;
3939;SDS011;1984;48.312;9.244;2024-02-21T15:14:50;3.70;;;2.73;;